Time;durP1;ratioP1;P1;durP2;ratioP2;P2;SDS_P1;SDS_P2;PMS_P1;PMS_P2;Temp;Humidity;BMP_temperature;BMP_pressure;BME280_temperature;BME280_humidity;BME280_pressure;Samples;Min_cycle;Max_cycle;Signal;HPM_P1;HPM_P2
2023/08/13 00:00:06;;;;;;;14.05;9.00;;;19.60;99.90;;;;;;6296553;28;20106;-80
2023/08/13 00:03:08;;;;;;;14.13;10.43;;;19.50;99.90;;;;;;6298228;28;20045;-81
2023/08/13 00:06:09;;;;;;;12.27;10.07;;;19.50;99.90;;;;;;6298513;28;20051;-80
2023/08/13 00:09:11;;;;;;;17.08;10.43;;;19.40;99.90;;;;;;6297435;28;20041;-80
2023/08/13 00:12:13;;;;;;;14.43;11.43;;;19.40;99.90;;;;;;6298142;28;20047;-79
2023/08/13 00:15:16;;;;;;;17.65;13.10;;;19.40;99.90;;;;;;6298162;28;20079;-82
2023/08/13 00:18:18;;;;;;;12.57;9.98;;;19.40;99.90;;;;;;6297308;28;20123;-80
2023/08/13 00:21:19;;;;;;;14.40;10.77;;;19.40;99.90;;;;;;6301625;28;20544;-79
2023/08/13 00:24:21;;;;;;;11.20;9.95;;;19.30;99.90;;;;;;6303475;28;20044;-79
2023/08/13 00:27:23;;;;;;;13.43;9.25;;;19.40;99.90;;;;;;6302816;28;20146;-80
2023/08/13 00:30:26;;;;;;;11.95;9.70;;;19.30;99.90;;;;;;6303606;28;20055;-79
2023/08/13 00:33:27;;;;;;;13.98;9.88;;;19.30;99.90;;;;;;6318825;28;20415;-80
2023/08/13 00:36:29;;;;;;;16.63;9.98;;;19.30;99.90;;;;;;6326990;28;20040;-79
2023/08/13 00:39:31;;;;;;;11.45;10.27;;;19.20;99.90;;;;;;6327809;28;20044;-80
2023/08/13 00:42:33;;;;;;;15.70;10.50;;;19.20;99.90;;;;;;6331849;28;20039;-80
2023/08/13 00:45:36;;;;;;;13.27;9.80;;;19.20;99.90;;;;;;6332200;28;20509;-81
2023/08/13 00:48:40;;;;;;;11.60;8.27;;;19.10;99.90;;;;;;6327127;28;20047;-77
2023/08/13 00:51:42;;;;;;;12.48;8.43;;;19.10;99.90;;;;;;6327074;28;20052;-80
2023/08/13 00:54:44;;;;;;;14.60;8.70;;;19.10;99.90;;;;;;6327534;28;20712;-79
2023/08/13 00:57:45;;;;;;;12.23;9.32;;;19.10;99.90;;;;;;6326481;28;20058;-80
2023/08/13 01:00:48;;;;;;;12.07;9.63;;;19.10;99.90;;;;;;6327444;28;20416;-80
2023/08/13 01:03:50;;;;;;;12.27;8.50;;;19.10;99.90;;;;;;6326630;28;20530;-80
2023/08/13 01:06:59;;;;;;;15.52;9.18;;;19.10;99.90;;;;;;6326511;28;20426;-78
2023/08/13 01:10:09;;;;;;;11.48;8.68;;;19.20;99.90;;;;;;6326420;28;20043;-80
2023/08/13 01:13:21;;;;;;;16.08;9.52;;;19.20;99.90;;;;;;6327017;28;20062;-79
2023/08/13 01:16:25;;;;;;;14.07;8.88;;;19.20;99.90;;;;;;6327185;28;20051;-80
2023/08/13 01:19:27;;;;;;;10.55;8.25;;;19.20;99.90;;;;;;6326413;28;20047;-80
2023/08/13 01:22:30;;;;;;;17.40;8.25;;;19.20;99.90;;;;;;6326276;28;20050;-78
2023/08/13 01:25:33;;;;;;;19.17;7.45;;;19.20;99.90;;;;;;6326452;28;20396;-80
2023/08/13 01:28:44;;;;;;;19.70;9.50;;;19.20;99.90;;;;;;6326646;28;20047;-78
2023/08/13 01:31:49;;;;;;;12.32;8.30;;;19.10;99.90;;;;;;6326251;28;20048;-80
2023/08/13 01:34:51;;;;;;;12.80;8.85;;;19.10;99.90;;;;;;6326510;28;20515;-80
2023/08/13 01:37:56;;;;;;;11.20;8.93;;;19.10;99.90;;;;;;6326084;28;20051;-79
2023/08/13 01:41:00;;;;;;;12.63;8.90;;;19.10;99.90;;;;;;6326281;28;20404;-78
2023/08/13 01:44:02;;;;;;;13.10;8.10;;;19.10;99.90;;;;;;6325942;28;20044;-80
2023/08/13 01:47:05;;;;;;;13.77;8.90;;;19.10;99.90;;;;;;6326739;28;20048;-80
2023/08/13 01:50:07;;;;;;;10.27;8.40;;;19.10;99.90;;;;;;6325737;28;20044;-81
2023/08/13 01:53:10;;;;;;;10.68;8.18;;;19.20;99.90;;;;;;6325968;28;20048;-80
2023/08/13 01:56:12;;;;;;;14.10;8.23;;;19.10;99.90;;;;;;6322865;28;20044;-79
2023/08/13 01:59:14;;;;;;;11.38;8.60;;;19.10;99.90;;;;;;6326266;28;20047;-80
2023/08/13 02:02:16;;;;;;;10.95;7.95;;;19.10;99.90;;;;;;6325176;28;20231;-79
2023/08/13 02:05:18;;;;;;;12.23;7.80;;;19.10;99.90;;;;;;6325400;28;20050;-80
2023/08/13 02:08:21;;;;;;;14.13;8.70;;;19.10;99.90;;;;;;6324991;28;20040;-80
2023/08/13 02:11:22;;;;;;;11.05;8.07;;;19.20;99.90;;;;;;6325863;28;20048;-78
2023/08/13 02:14:24;;;;;;;13.85;7.95;;;19.10;99.90;;;;;;6322648;28;20427;-80
2023/08/13 02:17:26;;;;;;;10.98;7.60;;;19.10;99.90;;;;;;6322183;28;20062;-78
2023/08/13 02:20:28;;;;;;;10.48;7.05;;;19.10;99.90;;;;;;6322710;28;20491;-78
2023/08/13 02:23:31;;;;;;;10.48;7.18;;;19.00;99.90;;;;;;6322655;28;20055;-78
2023/08/13 02:26:32;;;;;;;14.70;8.40;;;19.10;99.90;;;;;;6322865;28;20120;-78
2023/08/13 02:29:34;;;;;;;16.95;10.05;;;19.00;99.90;;;;;;6322070;28;20418;-78
2023/08/13 02:32:36;;;;;;;11.18;7.75;;;19.00;99.90;;;;;;6322350;28;20495;-79
2023/08/13 02:35:37;;;;;;;13.23;6.63;;;19.00;99.90;;;;;;6322179;28;20427;-79
2023/08/13 02:38:40;;;;;;;15.07;7.22;;;19.00;99.90;;;;;;6321763;28;20410;-79
2023/08/13 02:41:42;;;;;;;14.85;8.93;;;19.10;99.90;;;;;;6321801;28;20052;-78
2023/08/13 02:44:44;;;;;;;11.45;8.95;;;19.00;99.90;;;;;;6322920;28;20046;-80
2023/08/13 02:47:46;;;;;;;17.15;7.38;;;19.10;99.90;;;;;;6322166;28;20466;-78
2023/08/13 02:50:47;;;;;;;13.38;7.82;;;19.10;99.90;;;;;;6322791;28;20059;-78
2023/08/13 02:53:50;;;;;;;22.77;7.40;;;19.10;99.90;;;;;;6322347;28;20036;-78
2023/08/13 02:56:52;;;;;;;16.42;7.82;;;19.10;99.90;;;;;;6322091;28;20055;-79
2023/08/13 02:59:55;;;;;;;16.45;8.25;;;19.10;99.90;;;;;;6321171;28;20044;-78
2023/08/13 03:02:56;;;;;;;13.50;7.20;;;19.10;99.90;;;;;;6322685;28;20048;-80
2023/08/13 03:05:58;;;;;;;41.97;22.38;;;19.10;99.90;;;;;;6321889;28;20079;-78
2023/08/13 03:09:01;;;;;;;10.43;9.40;;;19.10;99.90;;;;;;6322009;28;20044;-78
2023/08/13 03:12:03;;;;;;;11.52;9.00;;;19.10;99.90;;;;;;6323405;28;20044;-80
2023/08/13 03:15:06;;;;;;;10.07;6.95;;;19.00;99.90;;;;;;6323172;28;20391;-80
2023/08/13 03:18:08;;;;;;;9.15;8.32;;;19.00;99.90;;;;;;6325003;28;20051;-80
2023/08/13 03:21:09;;;;;;;11.73;8.10;;;18.90;99.90;;;;;;6325576;28;20504;-80
2023/08/13 03:24:12;;;;;;;7.85;6.53;;;18.90;99.90;;;;;;6324552;28;20040;-80
2023/08/13 03:27:14;;;;;;;7.32;6.68;;;18.80;99.90;;;;;;6325622;28;20048;-81
2023/08/13 03:30:16;;;;;;;16.02;8.38;;;18.90;99.90;;;;;;6325107;28;20165;-81
2023/08/13 03:33:17;;;;;;;11.95;6.95;;;18.80;99.90;;;;;;6325475;28;20043;-81
2023/08/13 03:36:19;;;;;;;9.60;6.47;;;18.80;99.90;;;;;;6324810;28;20403;-81
2023/08/13 03:39:22;;;;;;;14.48;7.55;;;18.80;99.90;;;;;;6325624;28;20048;-80
2023/08/13 03:42:24;;;;;;;12.50;7.68;;;18.80;99.90;;;;;;6326074;28;20048;-79
2023/08/13 03:45:25;;;;;;;10.13;5.90;;;18.80;99.90;;;;;;6338131;28;20044;-78
2023/08/13 03:48:27;;;;;;;12.63;7.50;;;18.70;99.90;;;;;;6322153;28;20040;-78
2023/08/13 03:51:29;;;;;;;8.70;7.43;;;18.60;99.90;;;;;;6315581;28;20516;-78
2023/08/13 03:54:32;;;;;;;8.13;6.38;;;18.60;99.90;;;;;;6299238;28;20468;-78
2023/08/13 03:57:33;;;;;;;14.30;7.20;;;18.60;99.90;;;;;;6303186;28;20443;-80
2023/08/13 04:00:35;;;;;;;9.20;7.75;;;18.60;99.90;;;;;;6302356;28;20055;-78
2023/08/13 04:03:37;;;;;;;8.63;6.93;;;18.70;99.90;;;;;;6301675;28;20057;-79
2023/08/13 04:06:39;;;;;;;18.63;10.30;;;18.70;99.90;;;;;;6302025;28;20146;-78
2023/08/13 04:09:42;;;;;;;15.15;7.45;;;18.70;99.90;;;;;;6301967;28;20036;-80
2023/08/13 04:12:43;;;;;;;11.35;6.88;;;18.70;99.90;;;;;;6303128;28;20058;-79
2023/08/13 04:15:45;;;;;;;12.75;8.57;;;18.80;99.90;;;;;;6302118;28;20044;-79
2023/08/13 04:18:47;;;;;;;9.68;7.45;;;18.80;99.90;;;;;;6303341;28;20052;-78
2023/08/13 04:21:49;;;;;;;12.05;7.05;;;18.80;99.90;;;;;;6302111;28;20045;-78
2023/08/13 04:24:52;;;;;;;10.82;7.18;;;18.80;99.90;;;;;;6301611;28;20063;-78
2023/08/13 04:27:53;;;;;;;9.93;8.27;;;18.80;99.90;;;;;;6301398;28;20052;-79
2023/08/13 04:30:55;;;;;;;8.77;6.20;;;18.80;99.90;;;;;;6318848;28;20051;-78
2023/08/13 04:33:57;;;;;;;10.93;6.68;;;18.80;99.90;;;;;;6303417;28;20061;-78
2023/08/13 04:36:58;;;;;;;9.27;7.03;;;18.90;99.90;;;;;;6302174;28;20048;-80
2023/08/13 04:40:02;;;;;;;10.70;7.15;;;18.90;99.90;;;;;;6301463;28;20443;-79
2023/08/13 04:43:04;;;;;;;10.02;6.25;;;18.90;99.90;;;;;;6301593;28;20060;-79
2023/08/13 04:46:06;;;;;;;9.68;7.15;;;18.90;99.90;;;;;;6301722;28;20484;-79
2023/08/13 04:49:08;;;;;;;10.60;7.03;;;19.00;99.90;;;;;;6300646;28;20055;-79
2023/08/13 04:52:09;;;;;;;7.78;7.00;;;19.00;99.90;;;;;;6301314;28;20036;-79
2023/08/13 04:55:12;;;;;;;10.98;7.97;;;19.00;99.90;;;;;;6302084;28;20049;-79
2023/08/13 04:58:14;;;;;;;15.57;7.55;;;19.10;99.90;;;;;;6300925;28;20049;-79
2023/08/13 05:01:16;;;;;;;9.60;6.57;;;19.10;99.90;;;;;;6301086;28;20048;-79
2023/08/13 05:04:17;;;;;;;11.07;7.90;;;19.20;99.90;;;;;;6300532;28;20540;-78
2023/08/13 05:07:19;;;;;;;8.32;5.82;;;19.30;99.90;;;;;;6301027;28;20052;-79
2023/08/13 05:10:22;;;;;;;11.63;6.40;;;19.30;99.90;;;;;;6300437;28;20040;-79
2023/08/13 05:13:24;;;;;;;7.50;6.32;;;19.40;99.90;;;;;;6302532;28;20055;-80
2023/08/13 05:16:25;;;;;;;8.52;7.47;;;19.40;99.90;;;;;;6304086;28;20419;-79
2023/08/13 05:19:27;;;;;;;11.98;7.32;;;19.50;99.90;;;;;;6300316;28;20487;-79
2023/08/13 05:22:29;;;;;;;10.57;6.78;;;19.60;99.90;;;;;;6300733;28;20044;-78
2023/08/13 05:25:36;;;;;;;9.27;6.93;;;19.70;99.90;;;;;;6300383;28;20044;-79
2023/08/13 05:28:38;;;;;;;11.85;7.13;;;19.80;99.90;;;;;;6299708;28;20044;-80
2023/08/13 05:31:39;;;;;;;8.02;6.25;;;19.90;99.90;;;;;;6300918;28;20045;-80
2023/08/13 05:34:41;;;;;;;10.32;5.90;;;20.00;99.90;;;;;;6301801;28;20048;-79
2023/08/13 05:37:43;;;;;;;6.00;5.50;;;20.10;99.90;;;;;;6300330;28;20455;-78
2023/08/13 05:40:46;;;;;;;10.18;5.47;;;20.10;99.90;;;;;;6300377;28;20476;-79
2023/08/13 05:43:47;;;;;;;13.95;5.68;;;20.20;99.90;;;;;;6300540;28;20209;-80
2023/08/13 05:46:49;;;;;;;7.90;5.68;;;20.30;99.90;;;;;;6301047;28;20048;-78
2023/08/13 05:49:51;;;;;;;7.38;4.95;;;20.20;99.90;;;;;;6300483;28;20056;-80
2023/08/13 05:52:52;;;;;;;7.82;4.47;;;20.40;99.90;;;;;;6308098;28;20055;-80
2023/08/13 05:56:00;;;;;;;5.28;4.78;;;20.50;99.90;;;;;;6324786;28;20048;-80
2023/08/13 05:59:01;;;;;;;5.53;5.03;;;20.60;99.90;;;;;;6325827;28;20043;-79
2023/08/13 06:02:03;;;;;;;6.65;5.75;;;20.70;99.90;;;;;;6324215;28;20048;-79
2023/08/13 06:05:06;;;;;;;9.27;5.35;;;20.70;99.90;;;;;;6325561;28;20059;-80
2023/08/13 06:08:08;;;;;;;8.85;5.00;;;20.80;99.90;;;;;;6325236;28;20090;-80
2023/08/13 06:11:12;;;;;;;14.88;5.65;;;21.00;99.90;;;;;;6325411;28;20915;-79
2023/08/13 06:14:14;;;;;;;8.82;4.68;;;21.20;99.90;;;;;;6324606;28;20048;-79
2023/08/13 06:17:15;;;;;;;5.57;4.85;;;21.50;99.90;;;;;;6323749;28;20040;-79
2023/08/13 06:20:17;;;;;;;4.95;4.32;;;21.80;99.90;;;;;;6324555;28;20046;-79
2023/08/13 06:23:19;;;;;;;6.20;4.22;;;22.00;99.90;;;;;;6324887;28;20071;-80
2023/08/13 06:26:22;;;;;;;6.03;3.95;;;22.20;99.90;;;;;;6324818;28;20055;-80
2023/08/13 06:29:24;;;;;;;5.40;4.00;;;22.30;99.90;;;;;;6324803;28;20051;-79
2023/08/13 06:32:25;;;;;;;5.45;3.97;;;22.50;99.90;;;;;;6324930;28;20047;-79
2023/08/13 06:35:27;;;;;;;6.05;5.47;;;22.80;99.90;;;;;;6293098;28;20051;-79
2023/08/13 06:38:31;;;;;;;3.83;3.42;;;22.80;99.90;;;;;;6313110;28;20055;-79
2023/08/13 06:41:34;;;;;;;9.43;3.50;;;22.90;99.90;;;;;;6315639;28;20110;-80
2023/08/13 06:44:36;;;;;;;5.75;3.92;;;22.90;99.90;;;;;;6322933;28;20042;-80
2023/08/13 06:47:38;;;;;;;6.07;3.80;;;23.00;99.90;;;;;;6304686;28;20053;-79
2023/08/13 06:50:40;;;;;;;8.50;3.45;;;23.10;99.90;;;;;;6301620;28;20053;-80
2023/08/13 06:53:41;;;;;;;5.25;3.95;;;23.10;99.90;;;;;;6299002;28;20414;-78
2023/08/13 06:56:44;;;;;;;4.78;3.70;;;23.30;99.90;;;;;;6299641;28;20051;-79
2023/08/13 06:59:46;;;;;;;4.90;3.20;;;23.30;99.90;;;;;;6313631;28;20506;-80
2023/08/13 07:02:50;;;;;;;7.90;3.55;;;23.40;99.90;;;;;;6325115;28;20058;-79
2023/08/13 07:05:52;;;;;;;3.40;3.15;;;23.40;99.90;;;;;;6306253;28;20177;-79
2023/08/13 07:08:54;;;;;;;5.05;2.80;;;23.60;99.90;;;;;;6302200;28;20055;-80
2023/08/13 07:11:57;;;;;;;3.53;2.47;;;24.00;99.90;;;;;;6298863;28;20468;-80
2023/08/13 07:14:58;;;;;;;2.88;2.50;;;24.50;99.90;;;;;;6299532;28;20639;-80
2023/08/13 07:18:00;;;;;;;3.50;3.00;;;25.00;99.90;;;;;;6298612;28;20444;-81
2023/08/13 07:21:04;;;;;;;6.30;2.95;;;25.50;99.90;;;;;;6312945;28;20059;-80
2023/08/13 07:24:06;;;;;;;5.03;2.30;;;26.10;99.90;;;;;;6322044;28;20043;-80
2023/08/13 07:27:11;;;;;;;2.00;1.88;;;26.80;99.90;;;;;;6325698;28;20055;-80
2023/08/13 07:30:13;;;;;;;5.35;2.70;;;27.60;99.90;;;;;;6324972;28;20040;-79
2023/08/13 07:33:21;;;;;;;2.65;2.05;;;28.20;99.90;;;;;;6336904;28;20058;-82
2023/08/13 07:36:23;;;;;;;2.75;2.00;;;28.80;99.90;;;;;;6329491;28;20051;-81
2023/08/13 07:39:25;;;;;;;3.17;1.98;;;29.30;99.90;;;;;;6318246;28;20131;-80
2023/08/13 07:42:28;;;;;;;4.38;2.40;;;29.80;99.90;;;;;;6330290;28;20042;-83
2023/08/13 07:45:30;;;;;;;2.38;2.05;;;29.80;99.90;;;;;;6329667;28;20044;-82
2023/08/13 07:48:32;;;;;;;4.45;1.90;;;29.80;99.90;;;;;;6330134;28;20522;-81
2023/08/13 07:51:33;;;;;;;2.72;1.85;;;29.90;99.90;;;;;;6329890;28;20044;-82
2023/08/13 07:54:36;;;;;;;5.30;2.08;;;29.80;99.90;;;;;;6323714;28;20040;-81
2023/08/13 07:57:39;;;;;;;4.53;2.78;;;29.60;99.90;;;;;;6301894;28;20049;-81
2023/08/13 08:00:41;;;;;;;2.50;2.22;;;29.80;99.90;;;;;;6302039;28;20411;-82
2023/08/13 08:03:44;;;;;;;2.20;1.77;;;30.20;99.90;;;;;;6309801;28;20053;-83
2023/08/13 08:06:46;;;;;;;2.47;1.60;;;30.70;99.90;;;;;;6312380;28;20044;-82
2023/08/13 08:09:47;;;;;;;1.80;1.40;;;30.80;99.90;;;;;;6315523;28;20422;-82
2023/08/13 08:12:50;;;;;;;2.92;1.65;;;30.50;99.90;;;;;;6325203;28;20047;-82
2023/08/13 08:15:52;;;;;;;4.50;3.47;;;29.90;99.90;;;;;;6301000;28;20060;-82
2023/08/13 08:18:54;;;;;;;1.90;1.67;;;29.50;99.90;;;;;;6300137;28;20044;-82
2023/08/13 08:21:56;;;;;;;2.45;1.95;;;29.50;99.90;;;;;;6298913;28;20064;-83
2023/08/13 08:24:58;;;;;;;2.58;1.70;;;29.20;99.90;;;;;;6305584;28;20513;-83
2023/08/13 08:28:01;;;;;;;1.60;1.50;;;29.10;99.90;;;;;;6323533;28;20052;-84
2023/08/13 08:31:03;;;;;;;2.80;1.83;;;29.10;99.90;;;;;;6325257;28;20048;-84
2023/08/13 08:34:05;;;;;;;2.38;1.85;;;29.10;99.90;;;;;;6324170;28;20048;-82
2023/08/13 08:37:10;;;;;;;2.83;1.85;;;28.70;99.90;;;;;;6324169;28;20411;-83
2023/08/13 08:40:12;;;;;;;1.90;1.67;;;28.40;99.90;;;;;;6307668;28;20041;-81
2023/08/13 08:43:17;;;;;;;4.30;1.77;;;28.00;99.90;;;;;;6307605;28;20064;-81
2023/08/13 08:46:19;;;;;;;3.13;1.42;;;27.80;99.90;;;;;;6308595;28;20040;-82
2023/08/13 08:49:22;;;;;;;2.03;1.83;;;27.60;99.90;;;;;;6309425;28;20067;-84
2023/08/13 08:52:24;;;;;;;2.20;1.60;;;28.30;99.90;;;;;;6311636;28;20057;-83
2023/08/13 08:55:25;;;;;;;1.52;1.42;;;29.00;99.90;;;;;;6330233;28;20340;-82
2023/08/13 08:58:28;;;;;;;4.57;2.00;;;29.40;99.90;;;;;;6318583;28;20055;-83
2023/08/13 09:01:30;;;;;;;2.50;2.05;;;29.20;99.90;;;;;;6304357;28;20036;-83
2023/08/13 09:04:32;;;;;;;3.47;2.17;;;29.00;99.90;;;;;;6329394;28;20051;-83
2023/08/13 09:07:34;;;;;;;2.63;1.55;;;29.00;99.90;;;;;;6324602;28;20040;-82
2023/08/13 09:10:35;;;;;;;4.63;1.52;;;29.10;99.90;;;;;;6323960;28;20407;-83
2023/08/13 09:13:48;;;;;;;3.92;1.73;;;29.10;99.90;;;;;;6329199;28;20044;-81
2023/08/13 09:16:51;;;;;;;2.10;1.20;;;28.90;99.90;;;;;;6326226;28;20560;-85
2023/08/13 09:19:53;;;;;;;1.67;1.13;;;29.00;99.90;;;;;;6323127;28;20056;-84
2023/08/13 09:22:59;;;;;;;3.25;1.42;;;29.10;99.90;;;;;;6304616;28;20051;-84
2023/08/13 09:26:01;;;;;;;6.13;1.90;;;29.20;99.90;;;;;;6305928;28;20044;-83
2023/08/13 09:29:09;;;;;;;2.30;1.02;;;29.40;99.90;;;;;;6336126;28;20040;-85
2023/08/13 09:32:12;;;;;;;3.13;1.50;;;29.60;99.90;;;;;;6327864;28;20041;-83
2023/08/13 09:35:14;;;;;;;4.30;1.67;;;29.80;99.90;;;;;;6321302;28;20058;-83
2023/08/13 09:38:16;;;;;;;2.38;1.70;;;29.90;99.90;;;;;;6329077;28;20422;-83
2023/08/13 09:41:19;;;;;;;2.03;1.33;;;29.80;99.90;;;;;;6315898;28;20052;-84
2023/08/13 09:44:24;;;;;;;2.22;1.42;;;29.80;99.90;;;;;;6332158;27;20059;-84
2023/08/13 09:47:28;;;;;;;1.77;1.10;;;29.40;99.90;;;;;;6319902;28;20051;-83
2023/08/13 09:50:39;;;;;;;1.92;1.50;;;29.40;99.90;;;;;;6331040;27;20162;-84
2023/08/13 09:53:43;;;;;;;6.65;1.30;;;29.60;99.90;;;;;;6317914;28;20062;-83
2023/08/13 09:56:58;;;;;;;2.25;1.13;;;29.90;99.90;;;;;;6317238;28;20531;-84
2023/08/13 10:00:02;;;;;;;4.10;1.80;;;30.00;99.90;;;;;;6310461;28;20052;-85
2023/08/13 10:03:04;;;;;;;3.70;1.63;;;30.20;99.90;;;;;;6311857;28;20412;-85
2023/08/13 10:06:06;;;;;;;1.98;1.60;;;30.20;99.90;;;;;;6329718;28;20055;-83
2023/08/13 10:09:10;;;;;;;1.70;1.58;;;30.10;99.90;;;;;;6325485;28;20044;-85
2023/08/13 10:12:12;;;;;;;2.15;1.45;;;30.00;99.90;;;;;;6328865;28;20176;-82
2023/08/13 10:15:15;;;;;;;3.35;1.67;;;29.90;99.90;;;;;;6330490;28;20055;-85
2023/08/13 10:18:17;;;;;;;1.48;1.25;;;30.00;99.90;;;;;;6330825;28;20051;-85
2023/08/13 10:21:33;;;;;;;3.05;1.60;;;30.30;99.90;;;;;;6330022;28;20036;-85
2023/08/13 10:24:36;;;;;;;1.65;1.20;;;30.60;99.90;;;;;;6329394;28;20043;-83
2023/08/13 10:27:38;;;;;;;1.67;1.20;;;30.80;99.90;;;;;;6330650;28;20052;-81
2023/08/13 10:30:42;;;;;;;1.40;1.27;;;30.80;99.90;;;;;;6329340;28;20055;-83
2023/08/13 10:33:45;;;;;;;2.88;1.50;;;30.70;99.90;;;;;;6329263;28;20418;-85
2023/08/13 10:36:51;;;;;;;2.70;1.50;;;30.60;99.90;;;;;;6323069;28;20050;-85
2023/08/13 10:40:07;;;;;;;4.15;2.08;;;30.40;99.90;;;;;;6310121;28;20510;-84
2023/08/13 10:43:21;;;;;;;1.73;1.10;;;30.20;99.90;;;;;;6301320;28;20049;-85
2023/08/13 10:46:41;;;;;;;2.38;1.48;;;30.20;99.90;;;;;;6298610;28;20048;-85
2023/08/13 10:49:42;;;;;;;1.95;1.42;;;30.10;99.90;;;;;;6300648;28;20505;-85
2023/08/13 10:52:47;;;;;;;4.13;1.30;;;29.90;99.90;;;;;;6299522;28;20127;-86
2023/08/13 10:55:52;;;;;;;2.42;1.55;;;29.70;99.90;;;;;;6300642;28;20060;-86
2023/08/13 10:58:53;;;;;;;2.58;1.20;;;29.60;99.90;;;;;;6300886;28;20048;-85
2023/08/13 11:02:14;;;;;;;2.17;1.45;;;29.40;99.90;;;;;;6301901;28;20044;-85
2023/08/13 11:05:16;;;;;;;2.88;1.65;;;29.10;99.90;;;;;;6299199;28;20123;-83
2023/08/13 11:08:19;;;;;;;2.58;1.75;;;28.90;99.90;;;;;;6323059;28;20036;-83
2023/08/13 11:11:21;;;;;;;3.88;2.47;;;28.70;99.90;;;;;;6299856;28;20048;-83
2023/08/13 11:14:25;;;;;;;2.35;1.80;;;28.60;99.90;;;;;;6298161;28;20048;-82
2023/08/13 11:17:28;;;;;;;4.25;1.88;;;28.50;99.90;;;;;;6298080;28;20555;-83
2023/08/13 11:20:29;;;;;;;2.38;1.33;;;28.40;99.90;;;;;;6298980;28;20120;-82
2023/08/13 11:23:32;;;;;;;4.50;2.33;;;28.40;99.90;;;;;;6318348;28;20044;-82
2023/08/13 11:26:35;;;;;;;3.05;2.15;;;28.50;99.90;;;;;;6326146;28;20044;-84
2023/08/13 11:29:36;;;;;;;3.10;1.45;;;28.70;99.90;;;;;;6326616;28;20048;-83
2023/08/13 11:32:40;;;;;;;7.45;4.10;;;29.00;99.90;;;;;;6327229;28;20051;-83
2023/08/13 11:35:42;;;;;;;10.25;4.65;;;29.30;99.90;;;;;;6326258;28;20050;-84
2023/08/13 11:38:43;;;;;;;2.20;1.67;;;29.60;99.90;;;;;;6310836;28;20522;-82
2023/08/13 11:41:46;;;;;;;2.17;1.10;;;30.20;99.90;;;;;;6316681;28;20040;-82
2023/08/13 11:44:49;;;;;;;2.28;1.70;;;30.40;99.90;;;;;;6328119;28;20056;-82
2023/08/13 11:47:53;;;;;;;2.03;1.30;;;30.50;99.90;;;;;;6301407;28;20059;-84
2023/08/13 11:50:58;;;;;;;2.75;2.00;;;30.70;99.90;;;;;;6302468;28;20052;-82
2023/08/13 11:53:59;;;;;;;3.17;1.40;;;30.90;99.90;;;;;;6311438;28;20455;-82
2023/08/13 11:57:03;;;;;;;2.10;1.55;;;31.20;99.50;;;;;;6326907;28;20046;-83
2023/08/13 12:00:08;;;;;;;1.63;1.33;;;31.40;97.80;;;;;;6308135;28;20415;-82
2023/08/13 12:03:14;;;;;;;2.45;1.15;;;31.40;95.90;;;;;;6298302;28;20047;-82
2023/08/13 12:06:16;;;;;;;3.75;1.67;;;31.60;94.90;;;;;;6285401;28;20170;-83
2023/08/13 12:09:18;;;;;;;1.80;1.50;;;31.90;93.60;;;;;;6281337;28;20072;-83
2023/08/13 12:12:20;;;;;;;1.35;1.02;;;32.10;93.00;;;;;;6276626;28;20047;-83
2023/08/13 12:15:23;;;;;;;2.92;1.30;;;32.30;92.30;;;;;;6298454;28;20052;-84
2023/08/13 12:18:26;;;;;;;1.48;1.10;;;32.40;91.60;;;;;;6304667;28;20515;-83
2023/08/13 12:21:28;;;;;;;5.47;1.52;;;32.60;90.90;;;;;;6281649;28;20496;-83
2023/08/13 12:24:30;;;;;;;3.55;1.58;;;32.80;90.30;;;;;;6295629;28;20044;-83
2023/08/13 12:27:31;;;;;;;2.70;1.27;;;32.80;88.80;;;;;;6306770;28;20501;-82
2023/08/13 12:30:33;;;;;;;1.55;1.30;;;33.10;87.10;;;;;;6306300;28;20045;-82
2023/08/13 12:33:36;;;;;;;1.48;1.00;;;33.00;85.50;;;;;;6306824;28;20044;-82
2023/08/13 12:36:38;;;;;;;3.25;1.45;;;32.90;84.00;;;;;;6303475;28;20060;-83
2023/08/13 12:39:39;;;;;;;2.63;1.42;;;32.90;83.00;;;;;;6281461;28;20675;-83
2023/08/13 12:42:41;;;;;;;2.85;1.98;;;33.00;82.10;;;;;;6286310;28;20056;-83
2023/08/13 12:45:43;;;;;;;1.73;1.10;;;33.30;81.10;;;;;;6307517;28;20044;-83
2023/08/13 12:48:46;;;;;;;1.58;1.02;;;33.40;79.00;;;;;;6299071;28;20051;-82
2023/08/13 12:51:48;;;;;;;2.00;0.93;;;33.30;78.80;;;;;;6281926;28;20041;-81
2023/08/13 12:54:49;;;;;;;2.05;1.10;;;33.40;77.80;;;;;;6297162;28;20051;-83
2023/08/13 12:57:51;;;;;;;1.70;1.13;;;33.40;76.50;;;;;;6306728;28;20052;-83
2023/08/13 13:00:53;;;;;;;1.88;1.35;;;33.60;76.40;;;;;;6283667;28;20139;-83
2023/08/13 13:03:56;;;;;;;5.10;1.95;;;33.80;75.30;;;;;;6282472;28;20048;-83
2023/08/13 13:06:58;;;;;;;3.08;1.33;;;34.00;73.90;;;;;;6294655;28;20060;-85
2023/08/13 13:10:00;;;;;;;3.03;1.25;;;34.10;73.40;;;;;;6297372;28;20063;-85
2023/08/13 13:13:01;;;;;;;2.97;1.55;;;34.30;71.90;;;;;;6306413;28;20049;-84
2023/08/13 13:16:03;;;;;;;1.58;1.30;;;34.10;71.40;;;;;;6306580;28;20044;-85
2023/08/13 13:19:06;;;;;;;2.67;1.33;;;33.90;71.30;;;;;;6305282;28;20059;-84
2023/08/13 13:22:08;;;;;;;3.92;1.48;;;33.60;71.50;;;;;;6297865;28;20072;-85
2023/08/13 13:25:11;;;;;;;3.63;0.90;;;33.60;71.70;;;;;;6288327;28;20132;-84
2023/08/13 13:28:13;;;;;;;2.08;1.23;;;33.80;71.20;;;;;;6306073;28;20491;-84
2023/08/13 13:31:14;;;;;;;2.75;1.38;;;33.60;70.70;;;;;;6304466;28;20495;-83
2023/08/13 13:34:17;;;;;;;1.30;1.20;;;33.40;71.00;;;;;;6293092;28;20515;-83
2023/08/13 13:37:19;;;;;;;4.35;1.73;;;33.10;71.00;;;;;;6280802;28;20041;-84
2023/08/13 13:40:21;;;;;;;3.17;1.25;;;32.90;71.10;;;;;;6277756;28;20060;-81
2023/08/13 13:43:24;;;;;;;1.77;0.90;;;32.70;71.50;;;;;;6279356;28;20057;-81
2023/08/13 13:46:25;;;;;;;2.80;1.52;;;32.50;71.80;;;;;;6302186;28;20439;-82
2023/08/13 13:49:28;;;;;;;2.13;1.20;;;32.60;71.70;;;;;;6303517;28;20526;-82
2023/08/13 13:52:30;;;;;;;1.48;1.10;;;32.70;72.10;;;;;;6301662;28;20068;-81
2023/08/13 13:55:33;;;;;;;4.18;1.30;;;32.80;71.30;;;;;;6301047;28;20064;-84
2023/08/13 13:58:35;;;;;;;1.33;1.20;;;32.80;70.90;;;;;;6301615;28;20490;-81
2023/08/13 14:01:37;;;;;;;1.77;1.15;;;33.00;70.80;;;;;;6300503;28;20045;-81
2023/08/13 14:04:40;;;;;;;1.38;1.27;;;33.00;70.20;;;;;;6298853;28;20045;-82
2023/08/13 14:07:43;;;;;;;2.08;1.00;;;32.60;70.80;;;;;;6295414;28;20045;-82
2023/08/13 14:10:44;;;;;;;1.00;0.90;;;32.50;70.20;;;;;;6284791;28;20067;-79
2023/08/13 14:13:46;;;;;;;2.90;1.15;;;32.00;70.50;;;;;;6277632;28;20519;-80
2023/08/13 14:16:48;;;;;;;3.97;1.02;;;32.00;71.40;;;;;;6275686;28;20041;-80
2023/08/13 14:19:52;;;;;;;1.55;1.02;;;32.00;72.00;;;;;;6274504;28;20397;-81
2023/08/13 14:22:53;;;;;;;1.30;1.20;;;32.00;71.60;;;;;;6275110;28;20386;-81
2023/08/13 14:25:55;;;;;;;1.25;1.05;;;32.00;70.60;;;;;;6277153;28;20068;-82
2023/08/13 14:28:57;;;;;;;1.35;1.23;;;32.20;69.80;;;;;;6282025;28;20411;-80
2023/08/13 14:31:58;;;;;;;3.75;1.10;;;32.10;69.40;;;;;;6299243;28;20045;-80
2023/08/13 14:35:01;;;;;;;0.90;0.60;;;31.80;70.00;;;;;;6301178;28;20059;-81
2023/08/13 14:38:03;;;;;;;2.47;1.63;;;31.70;70.00;;;;;;6290707;28;20475;-80
2023/08/13 14:41:05;;;;;;;2.83;1.10;;;31.60;70.10;;;;;;6298116;28;20055;-80
2023/08/13 14:44:06;;;;;;;1.88;1.23;;;31.60;70.50;;;;;;6296400;28;20056;-82
2023/08/13 14:47:09;;;;;;;2.72;1.00;;;31.40;70.60;;;;;;6287645;28;20360;-82
2023/08/13 14:50:12;;;;;;;2.20;1.48;;;31.30;71.60;;;;;;6281172;28;20051;-82
2023/08/13 14:53:14;;;;;;;3.65;0.93;;;31.10;71.80;;;;;;6273976;28;20053;-80
2023/08/13 14:56:15;;;;;;;3.40;0.95;;;30.90;71.90;;;;;;6274257;28;20045;-81
2023/08/13 14:59:17;;;;;;;1.25;0.80;;;31.00;72.00;;;;;;6273578;28;20052;-80
2023/08/13 15:02:18;;;;;;;1.30;0.70;;;31.00;71.60;;;;;;6275455;28;20045;-82
2023/08/13 15:05:21;;;;;;;1.52;1.02;;;30.70;72.00;;;;;;6277848;28;20045;-82
2023/08/13 15:08:23;;;;;;;4.05;1.05;;;30.70;72.60;;;;;;6293013;28;20049;-80
2023/08/13 15:11:26;;;;;;;1.50;1.10;;;30.60;73.10;;;;;;6301661;28;20048;-81
2023/08/13 15:14:27;;;;;;;2.08;1.10;;;30.40;73.70;;;;;;6293140;28;20472;-81
2023/08/13 15:17:29;;;;;;;1.45;1.17;;;30.00;74.30;;;;;;6275284;28;20049;-83
2023/08/13 15:20:32;;;;;;;3.10;1.20;;;29.80;76.20;;;;;;6287877;28;20063;-79
2023/08/13 15:23:34;;;;;;;1.23;1.13;;;29.40;78.10;;;;;;6292339;28;20059;-81
2023/08/13 15:26:36;;;;;;;2.67;1.63;;;29.30;79.50;;;;;;6284245;28;20052;-82
2023/08/13 15:29:38;;;;;;;2.78;1.10;;;29.10;81.20;;;;;;6285941;28;20045;-82
2023/08/13 15:32:40;;;;;;;5.40;1.45;;;29.00;82.40;;;;;;6298057;28;20036;-81
2023/08/13 15:35:52;;;;;;;1.67;1.10;;;28.90;82.50;;;;;;6298994;28;20040;-83
2023/08/13 15:38:54;;;;;;;1.95;1.50;;;28.80;84.00;;;;;;6289408;28;20049;-81
2023/08/13 15:41:55;;;;;;;1.95;1.25;;;28.80;84.70;;;;;;6299673;28;20089;-80
2023/08/13 15:44:57;;;;;;;1.92;1.33;;;28.70;85.40;;;;;;6300060;28;20051;-80